createdAt,value
2022-11-27T00:00:36.339Z,13.57
2022-11-27T00:01:39.770Z,13.20
2022-11-27T00:02:41.667Z,14.35
2022-11-27T00:03:43.835Z,14.15
2022-11-27T00:04:45.733Z,16.80
2022-11-27T00:05:58.936Z,13.98
2022-11-27T00:07:00.665Z,14.73
2022-11-27T00:08:02.551Z,16.17
2022-11-27T00:09:08.121Z,12.13
2022-11-27T00:10:10.733Z,17.52
2022-11-27T00:11:15.345Z,13.68
2022-11-27T00:12:17.199Z,15.48
2022-11-27T00:13:19.196Z,16.23
2022-11-27T00:14:20.928Z,16.23
2022-11-27T00:15:28.541Z,16.73
2022-11-27T00:16:31.682Z,14.45
2022-11-27T00:17:33.394Z,12.25
2022-11-27T00:18:36.154Z,16.35
2022-11-27T00:19:38.285Z,14.80
2022-11-27T00:20:40.341Z,17.15
2022-11-27T00:21:42.231Z,17.48
2022-11-27T00:22:44.024Z,18.95
2022-11-27T00:23:46.103Z,17.00
2022-11-27T00:24:47.891Z,16.77
2022-11-27T00:25:51.635Z,19.33
2022-11-27T00:26:53.409Z,18.20
2022-11-27T00:27:55.176Z,21.23
2022-11-27T00:28:57.657Z,14.63
2022-11-27T00:29:59.907Z,14.13
2022-11-27T00:31:04.919Z,16.80
2022-11-27T00:32:08.385Z,15.52
2022-11-27T00:33:10.103Z,18.02
2022-11-27T00:34:12.060Z,19.50
2022-11-27T00:35:14.100Z,14.32
2022-11-27T00:36:16.381Z,16.83
2022-11-27T00:37:18.251Z,14.45
2022-11-27T00:38:20.651Z,14.35
2022-11-27T00:39:22.343Z,18.10
2022-11-27T00:40:25.909Z,17.67
2022-11-27T00:41:30.015Z,15.43
2022-11-27T00:42:31.869Z,13.38
2022-11-27T00:43:43.674Z,17.67
2022-11-27T00:44:46.612Z,17.10
2022-11-27T00:45:51.265Z,15.43
2022-11-27T00:46:54.525Z,18.60
2022-11-27T00:47:57.570Z,14.90
2022-11-27T00:49:01.021Z,12.32
2022-11-27T00:50:04.300Z,16.02
2022-11-27T00:51:09.787Z,15.23
2022-11-27T00:52:11.471Z,15.98
2022-11-27T00:53:13.266Z,17.25
2022-11-27T00:54:15.141Z,18.10
2022-11-27T00:55:17.256Z,14.90
2022-11-27T00:56:27.827Z,18.15
2022-11-27T00:57:29.726Z,17.65
2022-11-27T00:58:31.758Z,15.70
2022-11-27T00:59:33.512Z,16.58
2022-11-27T01:00:35.290Z,17.65
2022-11-27T01:01:40.115Z,16.15
2022-11-27T01:02:42.348Z,15.63
2022-11-27T01:03:44.605Z,12.65
2022-11-27T01:04:47.871Z,12.13
2022-11-27T01:05:50.141Z,16.08
2022-11-27T01:06:52.220Z,15.85
2022-11-27T01:07:54.195Z,16.80
2022-11-27T01:08:57.238Z,13.35
2022-11-27T01:10:00.087Z,14.00
2022-11-27T01:11:03.278Z,12.27
2022-11-27T01:12:05.877Z,13.45
2022-11-27T01:13:07.594Z,13.63
2022-11-27T01:14:14.290Z,15.25
2022-11-27T01:15:16.422Z,16.25
2022-11-27T01:16:21.782Z,16.92
2022-11-27T01:17:23.488Z,16.20
2022-11-27T01:18:25.450Z,17.13
2022-11-27T01:19:27.320Z,13.40
2022-11-27T01:20:29.118Z,12.65
2022-11-27T01:21:33.479Z,14.65
2022-11-27T01:22:35.411Z,12.27
2022-11-27T01:23:37.782Z,15.40
2022-11-27T01:24:39.941Z,14.10
2022-11-27T01:25:41.971Z,17.40
2022-11-27T01:26:44.686Z,18.70
2022-11-27T01:27:46.577Z,11.50
2022-11-27T01:28:52.609Z,16.98
2022-11-27T01:29:54.510Z,15.93
2022-11-27T01:30:58.014Z,13.27
2022-11-27T01:31:59.775Z,13.38
2022-11-27T01:33:01.612Z,11.32
2022-11-27T01:34:12.977Z,15.82
2022-11-27T01:35:14.795Z,15.80
2022-11-27T01:36:16.625Z,14.85
2022-11-27T01:37:18.388Z,16.80
2022-11-27T01:38:20.970Z,16.40
2022-11-27T01:39:24.933Z,19.10
2022-11-27T01:40:27.178Z,14.60
2022-11-27T01:41:31.997Z,14.13
2022-11-27T01:42:33.876Z,14.13
2022-11-27T01:43:46.859Z,15.88
2022-11-27T01:44:52.007Z,16.50
2022-11-27T01:45:59.983Z,13.30
2022-11-27T01:47:13.299Z,14.73
2022-11-27T01:48:15.042Z,19.73
2022-11-27T01:49:36.947Z,12.85
2022-11-27T01:50:40.327Z,12.65
2022-11-27T01:51:51.884Z,13.98
2022-11-27T01:52:59.978Z,14.13
2022-11-27T01:54:01.925Z,13.98
2022-11-27T01:55:20.483Z,19.23
2022-11-27T01:56:23.851Z,12.82
2022-11-27T01:57:32.875Z,15.57
2022-11-27T01:58:35.720Z,15.32
2022-11-27T01:59:37.721Z,19.02
2022-11-27T02:00:40.961Z,16.45
2022-11-27T02:01:42.663Z,14.88
2022-11-27T02:02:45.440Z,13.40
2022-11-27T02:03:47.331Z,15.45
2022-11-27T02:04:49.158Z,15.57
2022-11-27T02:05:50.907Z,13.20
2022-11-27T02:06:53.291Z,16.85
2022-11-27T02:07:57.814Z,14.77
2022-11-27T02:08:59.583Z,16.35
2022-11-27T02:10:01.955Z,15.52
2022-11-27T02:11:12.062Z,17.08
2022-11-27T02:12:36.126Z,15.40
2022-11-27T02:13:50.481Z,12.38
2022-11-27T02:15:08.447Z,11.45
2022-11-27T02:16:27.720Z,9.18
2022-11-27T02:17:54.483Z,11.60
2022-11-27T02:19:01.888Z,13.02
2022-11-27T02:20:41.048Z,11.98
2022-11-27T02:21:52.427Z,13.30
2022-11-27T02:23:26.081Z,15.25
2022-11-27T02:24:43.092Z,11.75
2022-11-27T02:26:05.006Z,14.77
2022-11-27T02:27:34.671Z,15.45
2022-11-27T02:29:13.126Z,13.90
2022-11-27T02:30:15.380Z,13.20
2022-11-27T02:31:27.825Z,18.67
2022-11-27T02:32:49.231Z,17.73
2022-11-27T02:33:54.566Z,16.48
2022-11-27T02:35:15.354Z,17.15
2022-11-27T02:36:26.024Z,16.35
2022-11-27T02:37:50.737Z,14.77
2022-11-27T02:39:07.174Z,12.85
2022-11-27T02:40:14.439Z,14.50
2022-11-27T02:41:19.351Z,14.75
2022-11-27T02:42:23.703Z,13.48
2022-11-27T02:43:36.570Z,14.07
2022-11-27T02:44:47.753Z,15.00
2022-11-27T02:45:53.828Z,14.15
2022-11-27T02:46:56.631Z,14.02
2022-11-27T02:47:59.671Z,14.85
2022-11-27T02:49:09.599Z,12.55
2022-11-27T02:50:19.708Z,17.92
2022-11-27T02:51:32.120Z,14.07
2022-11-27T02:52:34.038Z,14.30
2022-11-27T02:53:40.885Z,16.25
2022-11-27T02:54:45.371Z,15.13
2022-11-27T02:55:50.864Z,22.63
2022-11-27T02:56:54.853Z,13.43
2022-11-27T02:57:59.847Z,14.45
2022-11-27T02:59:05.075Z,12.95
2022-11-27T03:00:07.960Z,12.90
2022-11-27T03:01:11.002Z,13.32
2022-11-27T03:02:20.341Z,15.40
2022-11-27T03:03:27.430Z,14.30
2022-11-27T03:04:34.693Z,12.48
2022-11-27T03:05:42.271Z,14.70
2022-11-27T03:06:53.189Z,11.75
2022-11-27T03:08:05.108Z,12.55
2022-11-27T03:09:11.344Z,15.10
2022-11-27T03:10:29.876Z,15.50
2022-11-27T03:11:32.181Z,16.52
2022-11-27T03:12:34.149Z,15.95
2022-11-27T03:13:43.591Z,16.48
2022-11-27T03:14:47.150Z,13.70
2022-11-27T03:16:01.809Z,13.18
2022-11-27T03:17:18.485Z,16.33
2022-11-27T03:18:59.250Z,13.27
2022-11-27T03:20:21.944Z,17.45
2022-11-27T03:21:39.025Z,14.15
2022-11-27T03:22:40.987Z,13.45
2022-11-27T03:23:44.116Z,13.40
2022-11-27T03:24:46.098Z,10.50
2022-11-27T03:25:48.018Z,11.95
2022-11-27T03:26:50.508Z,12.90
2022-11-27T03:28:05.037Z,13.73
2022-11-27T03:29:12.554Z,11.65
2022-11-27T03:30:14.965Z,14.38
2022-11-27T03:31:17.314Z,13.63
2022-11-27T03:32:19.459Z,15.90
2022-11-27T03:33:21.808Z,14.70
2022-11-27T03:34:23.761Z,14.38
2022-11-27T03:35:27.638Z,15.77
2022-11-27T03:36:29.301Z,15.23
2022-11-27T03:37:31.221Z,13.88
2022-11-27T03:38:33.009Z,14.50
2022-11-27T03:39:35.107Z,11.40
2022-11-27T03:41:06.161Z,10.45
2022-11-27T03:42:23.266Z,13.15
2022-11-27T03:43:29.995Z,13.00
2022-11-27T03:45:00.953Z,14.30
2022-11-27T03:46:16.870Z,13.55
2022-11-27T03:47:37.455Z,13.05
2022-11-27T03:48:48.702Z,13.18
2022-11-27T03:49:50.714Z,14.65
2022-11-27T03:51:02.372Z,14.90
2022-11-27T03:52:24.007Z,13.90
2022-11-27T03:53:47.559Z,13.02
2022-11-27T03:55:08.061Z,13.00
2022-11-27T03:56:24.959Z,10.30
2022-11-27T03:57:39.829Z,13.75
2022-11-27T03:58:44.239Z,13.82
2022-11-27T03:59:49.022Z,10.73
2022-11-27T04:00:54.067Z,13.70
2022-11-27T04:01:56.238Z,13.52
2022-11-27T04:02:58.278Z,15.80
2022-11-27T04:04:00.209Z,11.30
2022-11-27T04:05:02.127Z,14.68
2022-11-27T04:06:04.052Z,15.57
2022-11-27T04:07:06.843Z,14.40
2022-11-27T04:08:08.630Z,15.77
2022-11-27T04:09:10.705Z,11.57
2022-11-27T04:10:13.040Z,12.00
2022-11-27T04:11:15.878Z,11.93
2022-11-27T04:12:17.600Z,11.45
2022-11-27T04:13:19.713Z,15.48
2022-11-27T04:14:21.434Z,11.55
2022-11-27T04:15:23.135Z,12.88
2022-11-27T04:16:25.041Z,13.25
2022-11-27T04:17:27.199Z,12.23
2022-11-27T04:18:29.007Z,13.65
2022-11-27T04:19:30.856Z,12.00
2022-11-27T04:20:32.750Z,11.60
2022-11-27T04:21:34.486Z,12.20
2022-11-27T04:22:36.380Z,14.25
2022-11-27T04:23:38.958Z,11.70
2022-11-27T04:24:40.843Z,12.70
2022-11-27T04:25:43.075Z,13.45
2022-11-27T04:26:44.771Z,13.88
2022-11-27T04:27:46.578Z,12.23
2022-11-27T04:28:48.317Z,12.73
2022-11-27T04:29:50.279Z,12.05
2022-11-27T04:30:53.497Z,15.77
2022-11-27T04:31:55.405Z,12.80
2022-11-27T04:32:58.690Z,9.68
2022-11-27T04:34:01.004Z,11.73
2022-11-27T04:35:02.935Z,11.48
2022-11-27T04:36:05.088Z,11.20
2022-11-27T04:37:06.855Z,11.27
2022-11-27T04:38:09.129Z,12.95
2022-11-27T04:39:10.934Z,14.13
2022-11-27T04:40:13.339Z,16.67
2022-11-27T04:41:15.340Z,12.27
2022-11-27T04:42:17.174Z,14.98
2022-11-27T04:43:19.211Z,13.13
2022-11-27T04:44:23.205Z,14.20
2022-11-27T04:45:25.008Z,13.15
2022-11-27T04:46:29.349Z,12.40
2022-11-27T04:47:31.210Z,12.00
2022-11-27T04:48:33.048Z,12.85
2022-11-27T04:49:35.117Z,12.13
2022-11-27T04:50:37.235Z,15.13
2022-11-27T04:51:38.999Z,9.73
2022-11-27T04:52:40.684Z,10.43
2022-11-27T04:53:42.455Z,11.75
2022-11-27T04:54:44.496Z,11.98
2022-11-27T04:55:46.209Z,13.77
2022-11-27T04:56:48.241Z,11.55
2022-11-27T04:57:50.147Z,12.10
2022-11-27T04:58:51.948Z,10.70
2022-11-27T04:59:55.515Z,10.85
2022-11-27T05:00:58.515Z,14.05
2022-11-27T05:02:00.917Z,13.30
2022-11-27T05:03:02.833Z,12.45
2022-11-27T05:04:04.882Z,12.27
2022-11-27T05:05:06.903Z,12.00
2022-11-27T05:06:09.251Z,8.73
2022-11-27T05:07:11.484Z,10.43
2022-11-27T05:08:13.471Z,12.25
2022-11-27T05:09:17.761Z,11.50
2022-11-27T05:10:19.602Z,10.60
2022-11-27T05:11:21.333Z,11.02
2022-11-27T05:12:23.193Z,11.38
2022-11-27T05:13:24.863Z,11.07
2022-11-27T05:14:29.399Z,11.27
2022-11-27T05:15:31.428Z,11.65
2022-11-27T05:16:33.262Z,9.70
2022-11-27T05:17:34.995Z,9.80
2022-11-27T05:18:36.794Z,9.45
2022-11-27T05:19:38.660Z,10.70
2022-11-27T05:20:40.507Z,11.50
2022-11-27T05:21:43.856Z,12.27
2022-11-27T05:22:46.195Z,12.07
2022-11-27T05:23:47.960Z,12.48
2022-11-27T05:24:50.072Z,10.68
2022-11-27T05:25:52.049Z,10.35
2022-11-27T05:26:54.838Z,10.13
2022-11-27T05:27:56.507Z,11.95
2022-11-27T05:28:58.253Z,10.85
2022-11-27T05:30:00.117Z,11.35
2022-11-27T05:31:02.162Z,14.20
2022-11-27T05:32:04.555Z,11.57
2022-11-27T05:33:06.353Z,13.88
2022-11-27T05:34:09.105Z,9.65
2022-11-27T05:35:10.957Z,12.48
2022-11-27T05:36:12.845Z,13.50
2022-11-27T05:37:19.212Z,12.95
2022-11-27T05:38:21.497Z,12.85
2022-11-27T05:39:23.939Z,10.55
2022-11-27T05:40:25.626Z,10.70
2022-11-27T05:41:27.628Z,11.98
2022-11-27T05:42:29.643Z,11.80
2022-11-27T05:43:31.393Z,11.23
2022-11-27T05:44:33.270Z,12.13
2022-11-27T05:45:36.854Z,12.90
2022-11-27T05:46:38.675Z,12.15
2022-11-27T05:47:40.648Z,15.43
2022-11-27T05:48:42.649Z,12.27
2022-11-27T05:49:44.477Z,10.55
2022-11-27T05:50:46.646Z,12.15
2022-11-27T05:51:51.302Z,12.75
2022-11-27T05:52:53.850Z,14.25
2022-11-27T05:53:55.663Z,14.50
2022-11-27T05:54:57.373Z,12.07
2022-11-27T05:56:08.720Z,12.85
2022-11-27T05:57:10.500Z,13.77
2022-11-27T05:58:12.429Z,13.07
2022-11-27T05:59:14.607Z,11.82
2022-11-27T06:00:16.916Z,9.80
2022-11-27T06:01:20.011Z,11.80
2022-11-27T06:02:27.900Z,10.57
2022-11-27T06:03:31.492Z,13.13
2022-11-27T06:04:36.572Z,11.73
2022-11-27T06:05:42.081Z,12.70
2022-11-27T06:06:43.918Z,11.73
2022-11-27T06:07:45.845Z,10.93
2022-11-27T06:08:47.947Z,11.15
2022-11-27T06:09:49.819Z,10.05
2022-11-27T06:10:51.687Z,10.10
2022-11-27T06:11:53.399Z,10.60
2022-11-27T06:12:55.506Z,10.35
2022-11-27T06:13:57.751Z,10.32
2022-11-27T06:14:59.695Z,11.20
2022-11-27T06:16:09.246Z,8.82
2022-11-27T06:17:11.171Z,12.27
2022-11-27T06:18:13.169Z,8.35
2022-11-27T06:19:14.982Z,12.23
2022-11-27T06:20:17.465Z,11.50
2022-11-27T06:21:20.155Z,15.20
2022-11-27T06:22:21.959Z,9.73
2022-11-27T06:23:23.706Z,12.65
2022-11-27T06:24:25.565Z,11.75
2022-11-27T06:25:28.038Z,11.55
2022-11-27T06:26:32.417Z,12.75
2022-11-27T06:27:36.038Z,11.15
2022-11-27T06:28:38.489Z,15.32
2022-11-27T06:29:40.501Z,10.25
2022-11-27T06:30:42.206Z,12.13
2022-11-27T06:31:44.056Z,11.52
2022-11-27T06:32:46.200Z,13.32
2022-11-27T06:33:49.628Z,14.13
2022-11-27T06:34:51.741Z,12.65
2022-11-27T06:35:55.524Z,13.95
2022-11-27T06:36:57.657Z,14.82
2022-11-27T06:37:59.370Z,12.65
2022-11-27T06:39:02.407Z,13.68
2022-11-27T06:40:05.155Z,14.52
2022-11-27T06:41:12.856Z,10.82
2022-11-27T06:42:14.837Z,16.27
2022-11-27T06:43:16.854Z,11.18
2022-11-27T06:44:18.706Z,13.50
2022-11-27T06:45:20.487Z,9.98
2022-11-27T06:46:24.757Z,11.35
2022-11-27T06:47:26.843Z,12.15
2022-11-27T06:48:29.265Z,12.85
2022-11-27T06:49:30.985Z,9.98
2022-11-27T06:50:32.711Z,10.82
2022-11-27T06:51:34.718Z,9.98
2022-11-27T06:52:40.350Z,10.27
2022-11-27T06:53:43.792Z,13.15
2022-11-27T06:54:45.611Z,15.63
2022-11-27T06:55:47.460Z,9.65
2022-11-27T06:56:50.817Z,13.30
2022-11-27T06:57:53.045Z,11.52
2022-11-27T06:58:57.040Z,9.90
2022-11-27T06:59:59.082Z,11.13
2022-11-27T07:01:03.252Z,13.85
2022-11-27T07:02:05.054Z,11.00
2022-11-27T07:03:07.106Z,9.38
2022-11-27T07:04:14.258Z,13.95
2022-11-27T07:05:17.443Z,11.43
2022-11-27T07:06:22.182Z,9.40
2022-11-27T07:07:24.088Z,10.82
2022-11-27T07:08:25.923Z,9.30
2022-11-27T07:09:27.755Z,11.57
2022-11-27T07:10:29.621Z,11.25
2022-11-27T07:11:32.304Z,11.25
2022-11-27T07:12:34.185Z,13.25
2022-11-27T07:13:35.912Z,12.77
2022-11-27T07:14:38.155Z,12.25
2022-11-27T07:15:40.180Z,11.23
2022-11-27T07:16:41.987Z,11.30
2022-11-27T07:17:43.760Z,13.70
2022-11-27T07:18:51.711Z,11.80
2022-11-27T07:19:53.622Z,9.95
2022-11-27T07:20:56.808Z,12.32
2022-11-27T07:21:59.925Z,11.10
2022-11-27T07:23:01.931Z,12.38
2022-11-27T07:24:03.988Z,10.23
2022-11-27T07:25:06.262Z,11.95
2022-11-27T07:26:13.615Z,11.35
2022-11-27T07:27:15.319Z,14.02
2022-11-27T07:28:19.028Z,11.65
2022-11-27T07:29:21.055Z,10.35
2022-11-27T07:30:22.811Z,10.55
2022-11-27T07:31:28.445Z,13.38
2022-11-27T07:32:31.143Z,12.05
2022-11-27T07:33:32.861Z,12.75
2022-11-27T07:34:35.980Z,11.73
2022-11-27T07:35:37.844Z,11.10
2022-11-27T07:36:39.825Z,10.93
2022-11-27T07:37:41.899Z,8.05
2022-11-27T07:38:44.407Z,11.73
2022-11-27T07:40:01.940Z,12.98
2022-11-27T07:41:06.190Z,9.77
2022-11-27T07:42:36.934Z,12.35
2022-11-27T07:43:33.385Z,7.20
2022-11-27T07:44:36.411Z,13.98
2022-11-27T07:45:38.219Z,12.55
2022-11-27T07:46:39.995Z,10.35
2022-11-27T07:47:42.799Z,10.82
2022-11-27T07:48:45.301Z,9.25
2022-11-27T07:49:48.295Z,11.50
2022-11-27T07:50:50.383Z,9.57
2022-11-27T07:51:54.633Z,11.85
2022-11-27T07:52:56.527Z,10.60
2022-11-27T07:54:00.160Z,12.50
2022-11-27T07:55:03.525Z,14.63
2022-11-27T07:56:06.948Z,12.88
2022-11-27T07:57:09.897Z,9.38
2022-11-27T07:58:11.851Z,10.73
2022-11-27T07:59:13.502Z,12.27
2022-11-27T08:00:15.980Z,9.60
2022-11-27T08:01:19.582Z,10.07
2022-11-27T08:02:21.775Z,10.40
2022-11-27T08:03:24.247Z,10.48
2022-11-27T08:04:27.402Z,10.68
2022-11-27T08:05:29.583Z,8.65
2022-11-27T08:06:31.659Z,10.02
2022-11-27T08:07:35.136Z,9.43
2022-11-27T08:08:37.034Z,9.60
2022-11-27T08:09:40.073Z,7.97
2022-11-27T08:10:42.356Z,9.38
2022-11-27T08:11:44.145Z,8.63
2022-11-27T08:12:46.211Z,8.85
2022-11-27T08:13:49.976Z,12.15
2022-11-27T08:14:52.099Z,11.13
2022-11-27T08:15:56.242Z,7.85
2022-11-27T08:17:00.221Z,10.80
2022-11-27T08:18:02.163Z,8.68
2022-11-27T08:19:04.166Z,6.78
2022-11-27T08:20:09.195Z,8.98
2022-11-27T08:21:14.693Z,8.65
2022-11-27T08:22:19.934Z,10.93
2022-11-27T08:23:24.702Z,11.40
2022-11-27T08:24:26.622Z,8.85
2022-11-27T08:25:29.209Z,10.15
2022-11-27T08:26:33.475Z,8.20
2022-11-27T08:27:37.416Z,10.90
2022-11-27T08:28:40.440Z,8.13
2022-11-27T08:29:42.832Z,9.20
2022-11-27T08:30:46.755Z,7.47
2022-11-27T08:31:50.276Z,9.40
2022-11-27T08:32:54.778Z,8.95
2022-11-27T08:33:58.008Z,10.95
2022-11-27T08:34:59.959Z,9.73
2022-11-27T08:36:02.438Z,7.97
2022-11-27T08:37:05.910Z,8.68
2022-11-27T08:38:07.590Z,11.15
2022-11-27T08:39:09.502Z,8.50
2022-11-27T08:40:17.301Z,10.25
2022-11-27T08:41:19.717Z,9.93
2022-11-27T08:42:23.263Z,10.35
2022-11-27T08:43:26.102Z,10.32
2022-11-27T08:44:28.354Z,8.88
2022-11-27T08:45:30.427Z,12.35
2022-11-27T08:46:33.013Z,10.35
2022-11-27T08:47:34.844Z,13.05
2022-11-27T08:48:37.070Z,9.95
2022-11-27T08:49:42.528Z,10.27
2022-11-27T08:50:46.947Z,8.80
2022-11-27T08:51:51.357Z,7.70
2022-11-27T08:52:53.533Z,9.50
2022-11-27T08:53:55.863Z,8.20
2022-11-27T08:54:58.642Z,10.00
2022-11-27T08:56:08.934Z,8.32
2022-11-27T08:57:10.947Z,10.15
2022-11-27T08:58:14.077Z,7.90
2022-11-27T08:59:16.147Z,11.65
2022-11-27T09:00:27.943Z,10.75
2022-11-27T09:01:32.779Z,13.05
2022-11-27T09:02:35.163Z,7.45
2022-11-27T09:03:38.974Z,9.00
2022-11-27T09:04:42.240Z,11.95
2022-11-27T09:05:44.850Z,12.82
2022-11-27T09:06:51.034Z,9.30
2022-11-27T09:07:54.984Z,8.75
2022-11-27T09:08:58.931Z,9.93
2022-11-27T09:10:00.659Z,10.43
2022-11-27T09:11:04.710Z,10.52
2022-11-27T09:12:06.840Z,14.25
2022-11-27T09:13:08.530Z,12.00
2022-11-27T09:14:11.920Z,13.98
2022-11-27T09:15:16.632Z,13.75
2022-11-27T09:16:21.114Z,10.88
2022-11-27T09:17:22.977Z,11.23
2022-11-27T09:18:25.947Z,10.60
2022-11-27T09:19:30.440Z,9.55
2022-11-27T09:20:32.281Z,13.45
2022-11-27T09:21:35.343Z,10.45
2022-11-27T09:22:37.288Z,8.43
2022-11-27T09:23:40.430Z,11.65
2022-11-27T09:24:42.592Z,8.40
2022-11-27T09:25:44.972Z,9.55
2022-11-27T09:26:48.658Z,9.93
2022-11-27T09:27:52.782Z,12.13
2022-11-27T09:28:58.508Z,10.10
2022-11-27T09:30:00.626Z,10.13
2022-11-27T09:31:06.560Z,10.23
2022-11-27T09:32:08.708Z,8.27
2022-11-27T09:33:10.718Z,8.60
2022-11-27T09:34:12.664Z,10.32
2022-11-27T09:35:14.968Z,10.65
2022-11-27T09:36:24.918Z,9.90
2022-11-27T09:37:27.063Z,13.02
2022-11-27T09:38:28.943Z,10.15
2022-11-27T09:39:34.094Z,7.97
2022-11-27T09:40:36.105Z,9.65
2022-11-27T09:41:54.600Z,9.90
2022-11-27T09:43:04.587Z,10.68
2022-11-27T09:44:45.514Z,10.30
2022-11-27T09:45:55.369Z,10.23
2022-11-27T09:47:14.723Z,12.57
2022-11-27T09:48:25.684Z,10.70
2022-11-27T09:50:25.903Z,12.23
2022-11-27T09:51:34.499Z,11.10
2022-11-27T09:52:48.022Z,10.07
2022-11-27T09:53:59.771Z,9.68
2022-11-27T09:55:21.413Z,10.10
2022-11-27T09:56:26.921Z,9.13
2022-11-27T09:57:34.755Z,12.15
2022-11-27T09:58:40.320Z,10.95
2022-11-27T09:59:55.678Z,10.40
2022-11-27T10:00:57.463Z,11.13
2022-11-27T10:01:59.386Z,9.00
2022-11-27T10:03:01.475Z,9.60
2022-11-27T10:04:03.435Z,9.68
2022-11-27T10:05:21.835Z,11.20
2022-11-27T10:06:41.940Z,8.88
2022-11-27T10:08:22.509Z,9.90
2022-11-27T10:09:46.875Z,9.95
2022-11-27T10:10:59.182Z,11.02
2022-11-27T10:12:16.225Z,12.07
2022-11-27T10:13:33.071Z,12.23
2022-11-27T10:15:17.580Z,10.55
2022-11-27T10:16:45.880Z,10.88
2022-11-27T10:17:55.662Z,9.57
2022-11-27T10:19:23.764Z,9.90
2022-11-27T10:20:41.101Z,8.60
2022-11-27T10:21:58.637Z,8.50
2022-11-27T10:23:00.262Z,9.93
2022-11-27T10:24:36.877Z,8.38
2022-11-27T10:25:48.143Z,8.63
2022-11-27T10:26:52.901Z,8.57
2022-11-27T10:28:18.527Z,10.77
2022-11-27T10:29:47.282Z,10.13
2022-11-27T10:31:02.909Z,13.35
2022-11-27T10:32:46.801Z,8.18
2022-11-27T10:33:49.338Z,10.38
2022-11-27T10:34:59.710Z,9.40
2022-11-27T10:36:01.642Z,7.95
2022-11-27T10:37:31.259Z,8.80
2022-11-27T10:38:39.629Z,13.30
2022-11-27T10:39:57.488Z,8.57
2022-11-27T10:41:48.781Z,9.13
2022-11-27T10:43:08.091Z,8.65
2022-11-27T10:44:35.006Z,8.27
2022-11-27T10:46:04.623Z,8.52
2022-11-27T10:47:10.456Z,12.07
2022-11-27T10:48:13.673Z,8.35
2022-11-27T10:49:15.336Z,8.82
2022-11-27T10:50:19.211Z,8.52
2022-11-27T10:51:25.089Z,9.88
2022-11-27T10:52:27.219Z,9.57
2022-11-27T10:53:37.220Z,8.90
2022-11-27T10:54:39.871Z,10.77
2022-11-27T10:56:16.212Z,11.88
2022-11-27T10:57:32.934Z,9.23
2022-11-27T10:58:50.874Z,8.48
2022-11-27T11:00:02.134Z,9.35
2022-11-27T11:01:07.181Z,11.05
2022-11-27T11:02:32.263Z,9.85
2022-11-27T11:03:34.674Z,8.45
2022-11-27T11:04:38.357Z,10.00
2022-11-27T11:06:11.713Z,8.38
2022-11-27T11:07:03.131Z,9.07
2022-11-27T11:08:20.556Z,8.85
2022-11-27T11:09:22.407Z,8.02
2022-11-27T11:10:33.138Z,8.77
2022-11-27T11:11:34.939Z,8.15
2022-11-27T11:12:37.048Z,8.88
2022-11-27T11:13:43.688Z,8.90
2022-11-27T11:14:53.760Z,10.10
2022-11-27T11:16:06.051Z,10.27
2022-11-27T11:17:16.420Z,8.75
2022-11-27T11:18:20.232Z,7.13
2022-11-27T11:19:44.238Z,8.75
2022-11-27T11:20:57.075Z,9.77
2022-11-27T11:22:00.959Z,7.80
2022-11-27T11:23:05.844Z,8.95
2022-11-27T11:24:13.985Z,10.35
2022-11-27T11:25:18.862Z,11.23
2022-11-27T11:26:23.475Z,10.90
2022-11-27T11:27:31.939Z,10.45
2022-11-27T11:28:43.571Z,10.77
2022-11-27T11:29:54.979Z,7.65
2022-11-27T11:31:02.235Z,9.98
2022-11-27T11:32:13.679Z,8.05
2022-11-27T11:33:15.571Z,7.95
2022-11-27T11:34:23.321Z,10.88
2022-11-27T11:35:29.439Z,10.80
2022-11-27T11:36:31.532Z,9.80
2022-11-27T11:37:36.250Z,10.88
2022-11-27T11:38:38.739Z,11.10
2022-11-27T11:39:45.876Z,9.75
2022-11-27T11:41:03.048Z,9.45
2022-11-27T11:42:11.345Z,11.65
2022-11-27T11:43:30.369Z,11.48
2022-11-27T11:44:41.438Z,10.40
2022-11-27T11:45:49.034Z,12.00
2022-11-27T11:46:53.160Z,9.93
2022-11-27T11:48:03.922Z,10.85
2022-11-27T11:49:08.627Z,8.48
2022-11-27T11:50:13.924Z,10.95
2022-11-27T11:51:34.270Z,11.88
2022-11-27T11:52:47.183Z,8.00
2022-11-27T11:54:07.781Z,9.70
2022-11-27T11:55:48.409Z,9.50
2022-11-27T11:56:52.635Z,8.02
2022-11-27T11:58:05.854Z,9.30
2022-11-27T11:59:45.291Z,8.65
2022-11-27T12:01:19.371Z,9.75
2022-11-27T12:03:01.302Z,9.18
2022-11-27T12:04:35.723Z,9.90
2022-11-27T12:05:42.731Z,9.98
2022-11-27T12:06:59.171Z,10.85
2022-11-27T12:08:23.815Z,12.05
2022-11-27T12:09:39.904Z,13.00
2022-11-27T12:10:58.353Z,8.85
2022-11-27T12:12:24.482Z,9.95
2022-11-27T12:13:47.758Z,7.50
2022-11-27T12:14:59.649Z,10.07
2022-11-27T12:16:09.544Z,7.85
2022-11-27T12:17:53.836Z,10.55
2022-11-27T12:19:19.051Z,10.40
2022-11-27T12:20:33.745Z,10.23
2022-11-27T12:22:07.466Z,9.68
2022-11-27T12:23:34.183Z,12.52
2022-11-27T12:24:36.041Z,12.80
2022-11-27T12:26:14.636Z,11.60
2022-11-27T12:27:55.588Z,10.70
2022-11-27T12:29:28.529Z,10.65
2022-11-27T12:30:55.759Z,11.30
2022-11-27T12:32:30.042Z,11.20
2022-11-27T12:33:49.910Z,8.88
2022-11-27T12:35:21.110Z,12.13
2022-11-27T12:36:26.959Z,9.15
2022-11-27T12:37:42.476Z,11.15
2022-11-27T12:38:59.262Z,10.32
2022-11-27T12:40:19.954Z,10.70
2022-11-27T12:41:24.919Z,11.77
2022-11-27T12:43:18.847Z,9.00
2022-11-27T12:44:36.792Z,9.70
2022-11-27T12:45:44.296Z,8.65
2022-11-27T12:46:56.906Z,11.18
2022-11-27T12:48:44.175Z,8.95
2022-11-27T12:49:56.166Z,9.75
2022-11-27T12:51:08.146Z,11.32
2022-11-27T12:52:27.734Z,9.77
2022-11-27T12:53:41.157Z,10.27
2022-11-27T12:54:53.459Z,7.68
2022-11-27T12:56:50.719Z,8.57
2022-11-27T12:58:07.556Z,8.25
2022-11-27T12:59:16.495Z,7.80
2022-11-27T13:00:24.912Z,7.50
2022-11-27T13:01:33.667Z,7.43
2022-11-27T13:03:01.833Z,9.35
2022-11-27T13:04:32.021Z,7.13
2022-11-27T13:06:00.108Z,7.68
2022-11-27T13:07:14.174Z,8.05
2022-11-27T13:08:24.257Z,9.82
2022-11-27T13:10:07.075Z,7.97
2022-11-27T13:11:13.873Z,7.20
2022-11-27T13:12:29.960Z,6.10
2022-11-27T13:13:48.236Z,7.85
2022-11-27T13:14:58.649Z,8.15
2022-11-27T13:16:10.174Z,8.07
2022-11-27T13:17:16.791Z,6.70
2022-11-27T13:18:33.583Z,7.43
2022-11-27T13:19:49.625Z,7.72
2022-11-27T13:20:53.052Z,6.93
2022-11-27T13:21:57.285Z,7.90
2022-11-27T13:22:59.300Z,8.35
2022-11-27T13:24:02.142Z,7.78
2022-11-27T13:25:05.128Z,9.32
2022-11-27T13:26:15.396Z,8.20
2022-11-27T13:27:23.710Z,7.80
2022-11-27T13:28:43.642Z,8.48
2022-11-27T13:30:00.968Z,6.80
2022-11-27T13:31:04.060Z,6.95
2022-11-27T13:32:07.903Z,7.90
2022-11-27T13:33:37.855Z,9.23
2022-11-27T13:34:47.023Z,8.55
2022-11-27T13:35:49.980Z,8.63
2022-11-27T13:37:04.867Z,8.63
2022-11-27T13:38:26.492Z,7.05
2022-11-27T13:39:40.539Z,9.38
2022-11-27T13:40:44.777Z,7.00
2022-11-27T13:41:48.784Z,6.80
2022-11-27T13:42:55.909Z,8.95
2022-11-27T13:43:58.529Z,7.22
2022-11-27T13:45:11.187Z,9.50
2022-11-27T13:46:21.093Z,6.90
2022-11-27T13:47:26.030Z,6.85
2022-11-27T13:48:34.433Z,7.20
2022-11-27T13:49:38.246Z,7.10
2022-11-27T13:50:47.187Z,7.15
2022-11-27T13:51:49.249Z,8.80
2022-11-27T13:52:54.894Z,9.13
2022-11-27T13:54:16.087Z,9.48
2022-11-27T13:55:26.198Z,8.93
2022-11-27T13:56:35.542Z,8.27
2022-11-27T13:57:39.350Z,8.10
2022-11-27T13:58:43.644Z,9.63
2022-11-27T14:00:13.106Z,7.45
2022-11-27T14:01:21.669Z,8.00
2022-11-27T14:02:24.662Z,8.63
2022-11-27T14:03:30.448Z,8.30
2022-11-27T14:04:33.661Z,10.50
2022-11-27T14:05:42.550Z,10.13
2022-11-27T14:06:51.254Z,9.95
2022-11-27T14:08:00.651Z,9.80
2022-11-27T14:09:05.751Z,7.75
2022-11-27T14:10:19.895Z,7.70
2022-11-27T14:11:36.552Z,14.38
2022-11-27T14:12:38.630Z,9.10
2022-11-27T14:13:46.827Z,6.18
2022-11-27T14:15:21.040Z,8.35
2022-11-27T14:16:31.436Z,9.02
2022-11-27T14:17:38.328Z,9.70
2022-11-27T14:18:40.261Z,7.32
2022-11-27T14:19:45.205Z,7.82
2022-11-27T14:20:57.985Z,7.22
2022-11-27T14:22:00.850Z,7.68
2022-11-27T14:23:18.277Z,8.27
2022-11-27T14:24:53.472Z,7.03
2022-11-27T14:26:30.264Z,7.18
2022-11-27T14:27:36.219Z,6.22
2022-11-27T14:28:38.366Z,6.53
2022-11-27T14:29:40.303Z,10.23
2022-11-27T14:30:50.884Z,9.45
2022-11-27T14:32:00.780Z,6.93
2022-11-27T14:33:04.625Z,8.50
2022-11-27T14:34:24.617Z,9.65
2022-11-27T14:35:27.893Z,6.80
2022-11-27T14:36:32.082Z,9.15
2022-11-27T14:37:33.982Z,10.35
2022-11-27T14:38:37.250Z,8.18
2022-11-27T14:39:41.162Z,6.00